createdAt,value
2019-03-13T00:01:05.753Z,0
2019-03-13T00:02:15.720Z,0
2019-03-13T00:03:25.637Z,0
2019-03-13T00:04:35.580Z,0
2019-03-13T00:05:45.501Z,0
2019-03-13T00:06:55.420Z,0
2019-03-13T00:08:05.444Z,0
2019-03-13T00:09:15.380Z,0
2019-03-13T00:10:25.296Z,0
2019-03-13T00:11:35.224Z,0
2019-03-13T00:12:45.144Z,0
2019-03-13T00:13:55.156Z,0
2019-03-13T00:15:05.203Z,0
2019-03-13T00:16:15.119Z,0
2019-03-13T00:17:25.036Z,0
2019-03-13T00:18:34.954Z,0
2019-03-13T00:19:44.922Z,0
2019-03-13T00:20:54.845Z,0
2019-03-13T00:22:04.763Z,0
2019-03-13T00:23:14.510Z,0
2019-03-13T00:24:24.423Z,0
2019-03-13T00:25:34.404Z,0
2019-03-13T00:26:44.434Z,0
2019-03-13T00:27:54.413Z,0
2019-03-13T00:29:04.332Z,0
2019-03-13T00:30:14.248Z,0
2019-03-13T00:31:24.298Z,0
2019-03-13T00:32:34.240Z,0
2019-03-13T00:33:44.199Z,0
2019-03-13T00:34:54.116Z,0
2019-03-13T00:36:04.051Z,0
2019-03-13T00:37:14.064Z,0
2019-03-13T00:38:23.995Z,0
2019-03-13T00:39:33.915Z,0
2019-03-13T00:40:43.883Z,0
2019-03-13T00:41:53.545Z,0
2019-03-13T00:43:03.512Z,0
2019-03-13T00:44:13.442Z,0
2019-03-13T00:45:23.357Z,0
2019-03-13T00:46:33.287Z,0
2019-03-13T00:47:43.202Z,0
2019-03-13T00:48:53.222Z,0
2019-03-13T00:50:03.137Z,0
2019-03-13T00:51:13.059Z,0
2019-03-13T00:52:22.977Z,0
2019-03-13T00:53:32.703Z,0
2019-03-13T00:54:42.678Z,0
2019-03-13T00:55:52.594Z,0
2019-03-13T00:57:02.515Z,0
2019-03-13T00:58:12.447Z,0
2019-03-13T00:59:22.363Z,0
2019-03-13T01:00:32.432Z,0
2019-03-13T01:01:42.350Z,0
2019-03-13T01:02:52.268Z,0
2019-03-13T01:04:02.190Z,0
2019-03-13T01:05:11.602Z,0
2019-03-13T01:06:21.734Z,0
2019-03-13T01:07:31.648Z,0
2019-03-13T01:08:41.076Z,0
2019-03-13T01:09:51.012Z,0
2019-03-13T01:11:00.930Z,0
2019-03-13T01:12:10.896Z,0
2019-03-13T01:13:20.814Z,0
2019-03-13T01:14:30.739Z,0
2019-03-13T01:15:40.660Z,0
2019-03-13T01:16:50.578Z,0
2019-03-13T01:18:00.344Z,0
2019-03-13T01:19:10.260Z,0
2019-03-13T01:20:20.190Z,0
2019-03-13T01:21:30.113Z,0
2019-03-13T01:22:40.057Z,0
2019-03-13T01:23:50.070Z,0
2019-03-13T01:24:59.995Z,0
2019-03-13T01:26:09.909Z,0
2019-03-13T01:27:19.832Z,0
2019-03-13T01:28:29.755Z,0
2019-03-13T01:29:39.744Z,0
2019-03-13T01:30:49.666Z,0
2019-03-13T01:31:59.581Z,0
2019-03-13T01:33:09.494Z,0
2019-03-13T01:34:19.411Z,0
2019-03-13T01:35:29.423Z,0
2019-03-13T01:36:39.352Z,0
2019-03-13T01:37:49.292Z,0
2019-03-13T01:38:59.211Z,0
2019-03-13T01:40:09.130Z,0
2019-03-13T01:41:19.199Z,0
2019-03-13T01:42:29.115Z,0
2019-03-13T01:43:39.044Z,0
2019-03-13T01:44:48.962Z,0
2019-03-13T01:45:58.877Z,0
2019-03-13T01:47:08.863Z,0
2019-03-13T01:48:18.778Z,0
2019-03-13T01:49:28.695Z,0
2019-03-13T01:50:38.688Z,0
2019-03-13T01:51:48.608Z,0
2019-03-13T01:52:58.682Z,0
2019-03-13T01:54:08.598Z,0
2019-03-13T01:55:18.509Z,0
2019-03-13T01:56:28.478Z,0
2019-03-13T01:57:38.414Z,0
2019-03-13T01:58:48.379Z,0
2019-03-13T01:59:58.289Z,0
2019-03-13T02:01:08.236Z,0
2019-03-13T02:02:18.160Z,0
2019-03-13T02:03:28.076Z,0
2019-03-13T02:04:38.050Z,0
2019-03-13T02:05:47.975Z,0
2019-03-13T02:06:57.892Z,0
2019-03-13T02:08:07.811Z,0
2019-03-13T02:09:17.749Z,0
2019-03-13T02:10:27.773Z,0
2019-03-13T02:11:37.691Z,0
2019-03-13T02:12:47.625Z,0
2019-03-13T02:13:57.293Z,0
2019-03-13T02:15:07.271Z,0
2019-03-13T02:16:17.288Z,0
2019-03-13T02:17:27.202Z,0
2019-03-13T02:18:37.121Z,0
2019-03-13T02:19:49.689Z,0
2019-03-13T02:20:59.762Z,0
2019-03-13T02:22:09.729Z,0
2019-03-13T02:23:19.677Z,0
2019-03-13T02:24:29.594Z,0
2019-03-13T02:25:39.512Z,0
2019-03-13T02:26:49.730Z,0
2019-03-13T02:27:59.707Z,0
2019-03-13T02:29:09.627Z,0
2019-03-13T02:30:19.617Z,0
2019-03-13T02:31:29.575Z,0
2019-03-13T02:32:39.827Z,0
2019-03-13T02:33:49.877Z,0
2019-03-13T02:34:59.838Z,0
2019-03-13T02:36:09.549Z,0
2019-03-13T02:37:19.508Z,0
2019-03-13T02:38:29.438Z,0
2019-03-13T02:39:39.475Z,0
2019-03-13T02:40:49.407Z,0
2019-03-13T02:41:59.343Z,0
2019-03-13T02:43:09.341Z,0
2019-03-13T02:44:19.282Z,0
2019-03-13T02:45:29.314Z,0
2019-03-13T02:46:39.296Z,0
2019-03-13T02:47:49.253Z,0
2019-03-13T02:48:59.203Z,0
2019-03-13T02:50:09.168Z,0
2019-03-13T02:51:19.194Z,0
2019-03-13T02:52:29.128Z,0
2019-03-13T02:53:38.826Z,0
2019-03-13T02:54:48.501Z,0
2019-03-13T02:55:58.437Z,0
2019-03-13T02:57:08.481Z,0
2019-03-13T02:58:18.519Z,0
2019-03-13T02:59:28.450Z,0
2019-03-13T03:00:42.299Z,0
2019-03-13T03:01:52.237Z,0
2019-03-13T03:03:01.744Z,0
2019-03-13T03:04:11.679Z,0
2019-03-13T03:05:21.367Z,0
2019-03-13T03:06:31.363Z,0
2019-03-13T03:07:41.078Z,0
2019-03-13T03:08:51.105Z,0
2019-03-13T03:10:01.037Z,0
2019-03-13T03:11:10.991Z,0
2019-03-13T03:12:20.938Z,0
2019-03-13T03:13:30.890Z,0
2019-03-13T03:14:40.923Z,0
2019-03-13T03:15:50.599Z,0
2019-03-13T03:17:00.590Z,0
2019-03-13T03:18:10.527Z,0
2019-03-13T03:19:20.286Z,0
2019-03-13T03:20:30.328Z,0
2019-03-13T03:21:40.408Z,0
2019-03-13T03:22:50.355Z,0
2019-03-13T03:24:00.313Z,0
2019-03-13T03:25:10.271Z,0
2019-03-13T03:26:20.225Z,0
2019-03-13T03:27:30.180Z,0
2019-03-13T03:28:39.883Z,0
2019-03-13T03:29:49.825Z,0
2019-03-13T03:30:59.791Z,0
2019-03-13T03:32:09.879Z,0
2019-03-13T03:33:19.882Z,0
2019-03-13T03:34:29.948Z,0
2019-03-13T03:35:39.943Z,0
2019-03-13T03:36:49.959Z,0
2019-03-13T03:38:00.087Z,0
2019-03-13T03:39:10.042Z,0
2019-03-13T03:40:25.083Z,0
2019-03-13T03:41:35.010Z,0
2019-03-13T03:42:44.712Z,0
2019-03-13T03:43:54.762Z,0
2019-03-13T03:45:04.687Z,0
2019-03-13T03:46:14.643Z,0
2019-03-13T03:47:24.616Z,0
2019-03-13T03:48:34.730Z,0
2019-03-13T03:49:44.772Z,0
2019-03-13T03:50:54.692Z,0
2019-03-13T03:52:04.638Z,0
2019-03-13T03:53:14.594Z,0
2019-03-13T03:54:24.528Z,0
2019-03-13T03:55:34.577Z,0
2019-03-13T03:56:44.510Z,0
2019-03-13T03:57:54.450Z,0
2019-03-13T03:59:04.424Z,0
2019-03-13T04:00:14.368Z,0
2019-03-13T04:01:24.178Z,0
2019-03-13T04:02:34.115Z,0
2019-03-13T04:03:44.092Z,0
2019-03-13T04:04:54.014Z,0
2019-03-13T04:06:03.944Z,0
2019-03-13T04:07:13.976Z,0
2019-03-13T04:08:23.659Z,0
2019-03-13T04:09:33.637Z,0
2019-03-13T04:10:43.568Z,0
2019-03-13T04:11:53.536Z,0
2019-03-13T04:13:03.648Z,0
2019-03-13T04:14:13.408Z,0
2019-03-13T04:15:23.365Z,0
2019-03-13T04:16:33.338Z,0
2019-03-13T04:17:43.285Z,0
2019-03-13T04:18:53.257Z,0
2019-03-13T04:20:03.202Z,0
2019-03-13T04:21:13.144Z,0
2019-03-13T04:22:23.076Z,0
2019-03-13T04:23:33.043Z,0
2019-03-13T04:24:43.074Z,0
2019-03-13T04:25:53.000Z,0
2019-03-13T04:27:02.934Z,0
2019-03-13T04:28:12.885Z,0
2019-03-13T04:29:22.836Z,0
2019-03-13T04:30:32.872Z,0
2019-03-13T04:31:42.804Z,0
2019-03-13T04:32:52.735Z,0
2019-03-13T04:34:02.678Z,0
2019-03-13T04:35:12.604Z,0
2019-03-13T04:36:22.629Z,0
2019-03-13T04:37:32.555Z,0
2019-03-13T04:38:42.502Z,0
2019-03-13T04:39:52.466Z,0
2019-03-13T04:41:02.388Z,0
2019-03-13T04:42:12.364Z,0
2019-03-13T04:43:22.288Z,0
2019-03-13T04:44:32.202Z,0
2019-03-13T04:45:42.129Z,0
2019-03-13T04:46:52.050Z,0
2019-03-13T04:48:02.079Z,0
2019-03-13T04:49:12.008Z,0
2019-03-13T04:50:21.945Z,0
2019-03-13T04:51:31.858Z,0
2019-03-13T04:52:41.770Z,0
2019-03-13T04:53:51.794Z,0
2019-03-13T04:55:01.718Z,0
2019-03-13T04:56:11.633Z,0
2019-03-13T04:57:21.554Z,0
2019-03-13T04:58:31.481Z,0
2019-03-13T04:59:41.447Z,0
2019-03-13T05:00:51.368Z,0
2019-03-13T05:02:01.306Z,0
2019-03-13T05:03:11.235Z,0
2019-03-13T05:04:21.159Z,0
2019-03-13T05:05:31.081Z,0
2019-03-13T05:06:40.994Z,0
2019-03-13T05:07:50.910Z,0
2019-03-13T05:09:00.835Z,0
2019-03-13T05:10:10.748Z,0
2019-03-13T05:11:20.723Z,0
2019-03-13T05:12:30.646Z,4
2019-03-13T05:13:40.586Z,4
2019-03-13T05:14:50.504Z,4
2019-03-13T05:16:00.449Z,4
2019-03-13T05:17:10.502Z,4
2019-03-13T05:18:20.421Z,4
2019-03-13T05:19:30.345Z,8
2019-03-13T05:20:40.258Z,8
2019-03-13T05:21:50.212Z,8
2019-03-13T05:23:00.225Z,8
2019-03-13T05:24:10.150Z,12
2019-03-13T05:25:21.768Z,12
2019-03-13T05:26:31.693Z,16
2019-03-13T05:27:41.637Z,16
2019-03-13T05:28:51.654Z,20
2019-03-13T05:30:01.585Z,24
2019-03-13T05:31:11.508Z,28
2019-03-13T05:32:21.427Z,28
2019-03-13T05:33:31.371Z,32
2019-03-13T05:34:41.390Z,40
2019-03-13T05:35:51.312Z,44
2019-03-13T05:37:01.231Z,48
2019-03-13T05:38:11.248Z,56
2019-03-13T05:39:20.923Z,60
2019-03-13T05:40:30.676Z,68
2019-03-13T05:41:40.698Z,80
2019-03-13T05:42:50.617Z,88
2019-03-13T05:44:00.284Z,96
2019-03-13T05:45:13.138Z,108
2019-03-13T05:46:23.132Z,112
2019-03-13T05:47:32.551Z,124
2019-03-13T05:48:42.479Z,132
2019-03-13T05:49:52.400Z,140
2019-03-13T05:51:02.313Z,148
2019-03-13T05:52:12.386Z,160
2019-03-13T05:53:22.307Z,172
2019-03-13T05:54:31.970Z,192
2019-03-13T05:55:41.886Z,208
2019-03-13T05:56:51.890Z,224
2019-03-13T05:58:01.858Z,244
2019-03-13T05:59:11.781Z,252
2019-03-13T06:00:21.704Z,276
2019-03-13T06:01:31.649Z,280
2019-03-13T06:02:41.594Z,312
2019-03-13T06:03:51.590Z,332
2019-03-13T06:05:01.548Z,348
2019-03-13T06:06:11.474Z,376
2019-03-13T06:07:21.393Z,412
2019-03-13T06:08:31.330Z,452
2019-03-13T06:09:41.449Z,484
2019-03-13T06:10:51.390Z,528
2019-03-13T06:12:01.310Z,576
2019-03-13T06:13:11.242Z,628
2019-03-13T06:14:21.163Z,696
2019-03-13T06:15:31.088Z,736
2019-03-13T06:16:41.018Z,756
2019-03-13T06:17:50.953Z,812
2019-03-13T06:19:00.873Z,868
2019-03-13T06:20:13.069Z,904
2019-03-13T06:21:23.178Z,956
2019-03-13T06:22:33.117Z,984
2019-03-13T06:23:43.125Z,1040
2019-03-13T06:24:55.566Z,1060
2019-03-13T06:26:05.524Z,1064
2019-03-13T06:27:15.540Z,1080
2019-03-13T06:28:25.458Z,1108
2019-03-13T06:29:38.899Z,1144
2019-03-13T06:30:48.818Z,1176
2019-03-13T06:31:58.736Z,1216
2019-03-13T06:33:08.754Z,1224
2019-03-13T06:34:18.928Z,1248
2019-03-13T06:35:31.096Z,1280
2019-03-13T06:36:41.016Z,1296
2019-03-13T06:37:50.940Z,1328
2019-03-13T06:39:00.921Z,1344
2019-03-13T06:40:10.845Z,1408
2019-03-13T06:41:20.773Z,1472
2019-03-13T06:42:30.699Z,1532
2019-03-13T06:43:40.627Z,1576
2019-03-13T06:44:50.668Z,1620
2019-03-13T06:46:00.604Z,1632
2019-03-13T06:47:10.277Z,1656
2019-03-13T06:48:20.198Z,1676
2019-03-13T06:49:30.115Z,1732
2019-03-13T06:50:39.912Z,1728
2019-03-13T06:51:49.843Z,1764
2019-03-13T06:52:59.762Z,1764
2019-03-13T06:54:09.776Z,1860
2019-03-13T06:55:19.713Z,1908
2019-03-13T06:56:29.738Z,1956
2019-03-13T06:57:39.713Z,2064
2019-03-13T06:58:49.640Z,2120
2019-03-13T06:59:59.560Z,2224
2019-03-13T07:01:09.490Z,2204
2019-03-13T07:02:19.516Z,2240
2019-03-13T07:03:29.482Z,2340
2019-03-13T07:04:39.412Z,2432
2019-03-13T07:05:49.329Z,2568
2019-03-13T07:06:59.297Z,2636
2019-03-13T07:08:09.295Z,2700
2019-03-13T07:09:19.297Z,2792
2019-03-13T07:10:29.226Z,2820
2019-03-13T07:11:39.189Z,2792
2019-03-13T07:12:49.103Z,2784
2019-03-13T07:13:59.079Z,2800
2019-03-13T07:15:09.110Z,2968
2019-03-13T07:16:19.040Z,2996
2019-03-13T07:17:28.975Z,3144
2019-03-13T07:18:38.899Z,3176
2019-03-13T07:19:48.871Z,3244
2019-03-13T07:20:58.818Z,3284
2019-03-13T07:22:08.792Z,3380
2019-03-13T07:23:18.913Z,3572
2019-03-13T07:24:28.583Z,3648
2019-03-13T07:25:38.559Z,3820
2019-03-13T07:26:51.285Z,3836
2019-03-13T07:28:01.329Z,3840
2019-03-13T07:29:19.607Z,3804
2019-03-13T07:30:29.522Z,3824
2019-03-13T07:31:39.437Z,3716
2019-03-13T07:32:49.372Z,3712
2019-03-13T07:33:59.295Z,3764
2019-03-13T07:35:09.216Z,3768
2019-03-13T07:36:19.243Z,3828
2019-03-13T07:37:28.909Z,3848
2019-03-13T07:38:38.587Z,3932
2019-03-13T07:39:48.511Z,3992
2019-03-13T07:40:58.455Z,4060
2019-03-13T07:42:08.560Z,4136
2019-03-13T07:43:18.604Z,4288
2019-03-13T07:44:28.540Z,4372
2019-03-13T07:45:38.456Z,4480
2019-03-13T07:46:48.121Z,4524
2019-03-13T07:47:58.138Z,4572
2019-03-13T07:49:08.089Z,4500
2019-03-13T07:50:18.011Z,4532
2019-03-13T07:51:27.955Z,4532
2019-03-13T07:52:40.057Z,4544
2019-03-13T07:53:49.498Z,4608
2019-03-13T07:54:59.417Z,4684
2019-03-13T07:56:09.347Z,4800
2019-03-13T07:57:19.274Z,4920
2019-03-13T07:58:29.192Z,4944
2019-03-13T07:59:39.156Z,4872
2019-03-13T08:00:49.079Z,4880
2019-03-13T08:01:59.020Z,4976
2019-03-13T08:03:08.955Z,5008
2019-03-13T08:04:18.961Z,5060
2019-03-13T08:05:29.050Z,5052
2019-03-13T08:06:38.982Z,5052
2019-03-13T08:07:48.906Z,5116
2019-03-13T08:08:58.874Z,5200
2019-03-13T08:10:08.800Z,5332
2019-03-13T08:11:18.875Z,5524
2019-03-13T08:12:28.860Z,5596
2019-03-13T08:13:38.561Z,5600
2019-03-13T08:14:48.491Z,5468
2019-03-13T08:15:58.417Z,5368
2019-03-13T08:17:08.387Z,5284
2019-03-13T08:18:18.311Z,5060
2019-03-13T08:19:31.573Z,4920
2019-03-13T08:20:41.504Z,4872
2019-03-13T08:21:51.196Z,4968
2019-03-13T08:23:00.958Z,5132
2019-03-13T08:24:10.996Z,5304
2019-03-13T08:25:20.913Z,5408
2019-03-13T08:26:30.934Z,5464
2019-03-13T08:27:40.860Z,5468
2019-03-13T08:28:50.886Z,5396
2019-03-13T08:30:00.807Z,5408
2019-03-13T08:31:10.756Z,5440
2019-03-13T08:32:20.734Z,5568
2019-03-13T08:33:30.658Z,5668
2019-03-13T08:34:40.646Z,5784
2019-03-13T08:35:50.584Z,5964
2019-03-13T08:37:00.274Z,6104
2019-03-13T08:38:10.202Z,6192
2019-03-13T08:39:20.122Z,6288
2019-03-13T08:40:30.193Z,6376
2019-03-13T08:41:40.118Z,6536
2019-03-13T08:42:50.035Z,6544
2019-03-13T08:43:59.972Z,6520
2019-03-13T08:45:09.898Z,6416
2019-03-13T08:46:19.995Z,6340
2019-03-13T08:47:29.917Z,6264
2019-03-13T08:48:39.839Z,6160
2019-03-13T08:49:49.757Z,6212
2019-03-13T08:50:59.697Z,6220
2019-03-13T08:52:09.732Z,6136
2019-03-13T08:53:19.650Z,6052
2019-03-13T08:54:29.575Z,6100
2019-03-13T08:55:39.495Z,6384
2019-03-13T08:56:49.435Z,6704
2019-03-13T08:57:59.454Z,7128
2019-03-13T08:59:09.372Z,7660
2019-03-13T09:00:19.043Z,8196
2019-03-13T09:01:29.021Z,8620
2019-03-13T09:02:38.946Z,9052
2019-03-13T09:03:48.876Z,9208
2019-03-13T09:04:58.809Z,9100
2019-03-13T09:06:08.918Z,9144
2019-03-13T09:07:18.849Z,9096
2019-03-13T09:08:28.767Z,9136
2019-03-13T09:09:38.728Z,9080
2019-03-13T09:10:48.657Z,9048
2019-03-13T09:11:58.588Z,9044
2019-03-13T09:13:09.261Z,9028
2019-03-13T09:14:19.199Z,9072
2019-03-13T09:15:29.117Z,9084
2019-03-13T09:16:39.113Z,8996
2019-03-13T09:17:49.045Z,8888
2019-03-13T09:18:58.965Z,8812
2019-03-13T09:20:08.894Z,8704
2019-03-13T09:21:18.924Z,8632
2019-03-13T09:22:28.909Z,8412
2019-03-13T09:23:38.847Z,8508
2019-03-13T09:24:48.785Z,8652
2019-03-13T09:25:58.711Z,8612
2019-03-13T09:27:08.758Z,8668
2019-03-13T09:28:18.423Z,8636
2019-03-13T09:29:28.719Z,8832
2019-03-13T09:30:38.865Z,8956
2019-03-13T09:31:48.796Z,9072
2019-03-13T09:32:58.821Z,9140
2019-03-13T09:34:08.743Z,9372
2019-03-13T09:35:18.731Z,9460
2019-03-13T09:36:28.660Z,9588
2019-03-13T09:37:38.589Z,9572
2019-03-13T09:38:48.661Z,9504
2019-03-13T09:39:58.593Z,9596
2019-03-13T09:41:08.527Z,9480
2019-03-13T09:42:18.446Z,9448
2019-03-13T09:43:28.370Z,9384
2019-03-13T09:44:38.450Z,9392
2019-03-13T09:45:48.375Z,9336
2019-03-13T09:46:58.298Z,9388
2019-03-13T09:48:08.284Z,9540
2019-03-13T09:49:21.672Z,9728
2019-03-13T09:50:31.706Z,9820
2019-03-13T09:51:41.626Z,10016
2019-03-13T09:52:51.565Z,10196
2019-03-13T09:54:01.260Z,10464
2019-03-13T09:55:11.845Z,10616
2019-03-13T09:56:21.852Z,10704
2019-03-13T09:57:31.777Z,10848
2019-03-13T09:58:41.698Z,10936
2019-03-13T09:59:51.623Z,10960
2019-03-13T10:01:01.546Z,11164
2019-03-13T10:02:11.475Z,10928
2019-03-13T10:03:21.424Z,11040
2019-03-13T10:04:31.355Z,11240
2019-03-13T10:05:41.289Z,11420
2019-03-13T10:06:51.208Z,11628
2019-03-13T10:08:01.283Z,11656
2019-03-13T10:09:10.967Z,11880
2019-03-13T10:10:20.907Z,12044
2019-03-13T10:11:30.833Z,12180
2019-03-13T10:12:40.756Z,12276
2019-03-13T10:13:50.832Z,12196
2019-03-13T10:15:00.766Z,12292
2019-03-13T10:16:10.688Z,12352
2019-03-13T10:17:20.637Z,12612
2019-03-13T10:18:30.649Z,13004
2019-03-13T10:19:43.112Z,13448
2019-03-13T10:20:53.362Z,13884
2019-03-13T10:22:03.279Z,14100
2019-03-13T10:23:13.206Z,14340
2019-03-13T10:24:23.125Z,14348
2019-03-13T10:25:33.152Z,14876
2019-03-13T10:26:43.085Z,14968
2019-03-13T10:27:53.013Z,15300
2019-03-13T10:29:02.942Z,15472
2019-03-13T10:30:12.873Z,15616
2019-03-13T10:31:22.925Z,15684
2019-03-13T10:32:32.850Z,15968
2019-03-13T10:33:42.777Z,16152
2019-03-13T10:34:52.703Z,16404
2019-03-13T10:36:02.665Z,16708
2019-03-13T10:37:12.338Z,16632
2019-03-13T10:38:22.267Z,16644
2019-03-13T10:39:32.186Z,16568
2019-03-13T10:40:42.107Z,16328
2019-03-13T10:41:52.026Z,16224
2019-03-13T10:43:01.958Z,16420
2019-03-13T10:44:11.886Z,16444
2019-03-13T10:45:21.844Z,16492
2019-03-13T10:46:31.770Z,16408
2019-03-13T10:47:41.714Z,16388
2019-03-13T10:48:53.272Z,16320
2019-03-13T10:50:03.176Z,16420
2019-03-13T10:51:13.143Z,16456
2019-03-13T10:52:23.105Z,16732
2019-03-13T10:53:33.029Z,16968
2019-03-13T10:54:42.964Z,17696
2019-03-13T10:55:55.089Z,18208
2019-03-13T10:57:04.953Z,18880
2019-03-13T10:58:14.883Z,19360
2019-03-13T10:59:24.807Z,20000
2019-03-13T11:00:34.865Z,20512
2019-03-13T11:01:44.832Z,20608
2019-03-13T11:02:54.772Z,20736
2019-03-13T11:04:04.708Z,20672
2019-03-13T11:05:14.633Z,20320
2019-03-13T11:06:24.558Z,20480
2019-03-13T11:07:36.028Z,20800
2019-03-13T11:08:45.960Z,20832
2019-03-13T11:09:55.886Z,20960
2019-03-13T11:11:05.813Z,21408
2019-03-13T11:12:15.887Z,21856
2019-03-13T11:13:25.820Z,22240
2019-03-13T11:14:35.748Z,23136
2019-03-13T11:15:45.741Z,23328
2019-03-13T11:16:55.417Z,23456
2019-03-13T11:18:05.442Z,23904
2019-03-13T11:19:15.402Z,24672
2019-03-13T11:20:25.347Z,25504
2019-03-13T11:21:35.271Z,26368
2019-03-13T11:22:45.210Z,27200
2019-03-13T11:23:55.136Z,27616
2019-03-13T11:25:08.221Z,26368
2019-03-13T11:26:18.237Z,25280
2019-03-13T11:27:28.166Z,24000
2019-03-13T11:28:38.098Z,22912
2019-03-13T11:29:47.539Z,22304
2019-03-13T11:30:57.216Z,20960
2019-03-13T11:32:06.898Z,19072
2019-03-13T11:33:16.908Z,16896
2019-03-13T11:34:26.850Z,14568
2019-03-13T11:35:36.780Z,12784
2019-03-13T11:36:46.721Z,11996
2019-03-13T11:37:56.649Z,12104
2019-03-13T11:39:06.584Z,12680
2019-03-13T11:40:16.512Z,13540
2019-03-13T11:41:26.548Z,14384
2019-03-13T11:42:36.237Z,15404
2019-03-13T11:43:48.667Z,15752
2019-03-13T11:44:58.595Z,16924
2019-03-13T11:46:08.527Z,17792
2019-03-13T11:47:18.659Z,18528
2019-03-13T11:48:28.341Z,18752
2019-03-13T11:49:38.028Z,18848
2019-03-13T11:50:47.966Z,18688
2019-03-13T11:51:57.897Z,17984
2019-03-13T11:53:07.873Z,17600
2019-03-13T11:54:17.564Z,16748
2019-03-13T11:55:27.494Z,16416
2019-03-13T11:56:37.442Z,16116
2019-03-13T11:57:47.369Z,15596
2019-03-13T11:58:57.441Z,15120
2019-03-13T12:00:07.573Z,14832
2019-03-13T12:01:19.973Z,14044
2019-03-13T12:02:29.908Z,13368
2019-03-13T12:03:39.871Z,13216
2019-03-13T12:04:49.600Z,13720
2019-03-13T12:05:59.286Z,14608
2019-03-13T12:07:09.220Z,15432
2019-03-13T12:08:19.152Z,16312
2019-03-13T12:09:29.078Z,17440
2019-03-13T12:10:39.181Z,17952
2019-03-13T12:11:49.107Z,18368
2019-03-13T12:12:59.034Z,18016
2019-03-13T12:14:08.981Z,17536
2019-03-13T12:15:18.905Z,16944
2019-03-13T12:16:28.978Z,16736
2019-03-13T12:17:38.906Z,17472
2019-03-13T12:18:48.841Z,17728
2019-03-13T12:19:58.770Z,17536
2019-03-13T12:21:08.721Z,17376
2019-03-13T12:22:18.695Z,17728
2019-03-13T12:23:28.619Z,18592
2019-03-13T12:24:38.543Z,19008
2019-03-13T12:25:48.474Z,19584
2019-03-13T12:26:58.406Z,19520
2019-03-13T12:28:08.447Z,19328
2019-03-13T12:29:18.379Z,19808
2019-03-13T12:30:28.325Z,20768
2019-03-13T12:31:38.253Z,21760
2019-03-13T12:32:48.177Z,22976
2019-03-13T12:33:58.223Z,24000
2019-03-13T12:35:08.173Z,24896
2019-03-13T12:36:18.161Z,25120
2019-03-13T12:37:28.090Z,25728
2019-03-13T12:38:38.020Z,27008
2019-03-13T12:39:47.997Z,26912
2019-03-13T12:40:57.931Z,28064
2019-03-13T12:42:07.871Z,29568
2019-03-13T12:43:17.793Z,30560
2019-03-13T12:44:27.787Z,31136
2019-03-13T12:45:37.719Z,29856
2019-03-13T12:46:47.659Z,28896
2019-03-13T12:47:57.587Z,28384
2019-03-13T12:49:07.517Z,27904
2019-03-13T12:50:17.454Z,27328
2019-03-13T12:51:27.612Z,26848
2019-03-13T12:52:37.580Z,26688
2019-03-13T12:53:47.511Z,25408
2019-03-13T12:54:57.447Z,23936
2019-03-13T12:56:09.981Z,22208
2019-03-13T12:57:20.063Z,21312
2019-03-13T12:58:30.016Z,20960
2019-03-13T12:59:39.978Z,20672
2019-03-13T13:00:49.660Z,20352
2019-03-13T13:01:59.590Z,19968
2019-03-13T13:03:09.347Z,19424
2019-03-13T13:04:19.278Z,19392
2019-03-13T13:05:29.216Z,19680
2019-03-13T13:06:39.142Z,19936
2019-03-13T13:07:49.069Z,19680
2019-03-13T13:08:59.158Z,19104
2019-03-13T13:10:09.103Z,18432
2019-03-13T13:11:19.035Z,17664
2019-03-13T13:12:28.964Z,17440
2019-03-13T13:13:38.897Z,17568
2019-03-13T13:14:51.130Z,17568
2019-03-13T13:16:02.203Z,17312
2019-03-13T13:17:12.156Z,16636
2019-03-13T13:18:22.162Z,16032
2019-03-13T13:19:32.096Z,15336
2019-03-13T13:20:42.153Z,14912
2019-03-13T13:21:52.079Z,14460
2019-03-13T13:23:02.066Z,14088
2019-03-13T13:24:12.001Z,14128
2019-03-13T13:25:21.938Z,14336
2019-03-13T13:26:31.954Z,14424
2019-03-13T13:27:41.886Z,14236
2019-03-13T13:28:51.826Z,14068
2019-03-13T13:30:01.852Z,14556
2019-03-13T13:31:11.797Z,14560
2019-03-13T13:32:21.720Z,14572
2019-03-13T13:33:31.675Z,14840
2019-03-13T13:34:41.369Z,15244
2019-03-13T13:35:51.302Z,15668
2019-03-13T13:37:01.242Z,16516
2019-03-13T13:38:12.683Z,17728
2019-03-13T13:39:22.610Z,17600
2019-03-13T13:40:32.614Z,18208
2019-03-13T13:41:42.547Z,20928
2019-03-13T13:42:52.479Z,23776
2019-03-13T13:44:02.458Z,25440
2019-03-13T13:45:12.414Z,26784
2019-03-13T13:46:22.340Z,28320
2019-03-13T13:47:32.015Z,27424
2019-03-13T13:48:41.945Z,25472
2019-03-13T13:50:04.355Z,25760
2019-03-13T13:51:14.291Z,26560
2019-03-13T13:52:24.217Z,37312
2019-03-13T13:53:34.140Z,35136
2019-03-13T13:54:44.068Z,43168
2019-03-13T13:55:54.005Z,30208
2019-03-13T13:57:03.952Z,24480
2019-03-13T13:58:13.883Z,22176
2019-03-13T13:59:23.812Z,21600
2019-03-13T14:00:33.841Z,22624
2019-03-13T14:01:43.781Z,26304
2019-03-13T14:02:53.710Z,26624
2019-03-13T14:04:03.646Z,34880
2019-03-13T14:05:13.584Z,29152
2019-03-13T14:06:23.536Z,31008
2019-03-13T14:07:33.223Z,22944
2019-03-13T14:08:43.158Z,19136
2019-03-13T14:09:53.089Z,17344
2019-03-13T14:11:03.011Z,16832
2019-03-13T14:12:13.088Z,17600
2019-03-13T14:13:23.020Z,21216
2019-03-13T14:14:33.059Z,25408
2019-03-13T14:15:42.998Z,27072
2019-03-13T14:16:52.927Z,39200
2019-03-13T14:18:05.098Z,22176
2019-03-13T14:19:15.040Z,24512
2019-03-13T14:20:24.987Z,16248
2019-03-13T14:21:34.924Z,17984
2019-03-13T14:22:44.853Z,13544
2019-03-13T14:23:54.529Z,12128
2019-03-13T14:25:04.463Z,11576
2019-03-13T14:26:14.445Z,10244
2019-03-13T14:27:24.454Z,8916
2019-03-13T14:28:34.464Z,9008
2019-03-13T14:29:46.969Z,10220
2019-03-13T14:30:57.305Z,11232
2019-03-13T14:32:07.229Z,11812
2019-03-13T14:33:17.158Z,12832
2019-03-13T14:34:27.094Z,13596
2019-03-13T14:35:37.023Z,13736
2019-03-13T14:36:46.967Z,14156
2019-03-13T14:37:56.898Z,14236
2019-03-13T14:39:06.580Z,14544
2019-03-13T14:40:16.512Z,14576
2019-03-13T14:41:29.038Z,15088
2019-03-13T14:42:38.971Z,15168
2019-03-13T14:43:48.901Z,15572
2019-03-13T14:44:58.845Z,15660
2019-03-13T14:46:08.537Z,15204
2019-03-13T14:47:18.572Z,14608
2019-03-13T14:48:28.501Z,13712
2019-03-13T14:49:38.462Z,12848
2019-03-13T14:50:48.142Z,12660
2019-03-13T14:51:58.080Z,12632
2019-03-13T14:53:08.112Z,12548
2019-03-13T14:54:18.045Z,12780
2019-03-13T14:55:27.986Z,12648
2019-03-13T14:56:37.925Z,12324
2019-03-13T14:57:47.870Z,12200
2019-03-13T14:58:57.933Z,12260
2019-03-13T15:00:07.903Z,12272
2019-03-13T15:01:17.837Z,12020
2019-03-13T15:02:27.519Z,11756
2019-03-13T15:03:37.194Z,11420
2019-03-13T15:04:49.049Z,11348
2019-03-13T15:05:58.986Z,10744
2019-03-13T15:07:08.920Z,10184
2019-03-13T15:08:18.843Z,9784
2019-03-13T15:09:28.771Z,9484
2019-03-13T15:10:38.798Z,9544
2019-03-13T15:11:48.734Z,9668
2019-03-13T15:12:58.415Z,9740
2019-03-13T15:14:08.356Z,9592
2019-03-13T15:15:18.288Z,9364
2019-03-13T15:16:28.332Z,9016
2019-03-13T15:17:38.267Z,8712
2019-03-13T15:18:47.942Z,8388
2019-03-13T15:19:57.877Z,8144
2019-03-13T15:21:07.883Z,7968
2019-03-13T15:22:17.968Z,7780
2019-03-13T15:23:27.893Z,7592
2019-03-13T15:24:37.830Z,7376
2019-03-13T15:25:47.753Z,7160
2019-03-13T15:26:57.699Z,6984
2019-03-13T15:28:07.735Z,6720
2019-03-13T15:29:17.658Z,6420
2019-03-13T15:30:27.579Z,6108
2019-03-13T15:31:37.499Z,5816
2019-03-13T15:32:47.169Z,5724
2019-03-13T15:33:57.196Z,5688
2019-03-13T15:35:07.220Z,5584
2019-03-13T15:36:17.147Z,5588
2019-03-13T15:37:27.069Z,5484
2019-03-13T15:38:36.753Z,5320
2019-03-13T15:39:46.801Z,5172
2019-03-13T15:40:58.059Z,5124
2019-03-13T15:42:08.166Z,5028
2019-03-13T15:43:18.086Z,4932
2019-03-13T15:44:28.011Z,4836
2019-03-13T15:45:38.041Z,4744
2019-03-13T15:46:47.964Z,4600
2019-03-13T15:47:57.911Z,4308
2019-03-13T15:49:07.833Z,4124
2019-03-13T15:50:17.757Z,4008
2019-03-13T15:51:27.793Z,3884
2019-03-13T15:52:37.473Z,3796
2019-03-13T15:53:47.399Z,3752
2019-03-13T15:54:57.322Z,3656
2019-03-13T15:56:07.250Z,3532
2019-03-13T15:57:18.454Z,3412